»·PEaware :: SWA321 KGEG-KRNO

SWA321 :: KGEG-KRNO

FLIGHT INFORMATION

Flight Status: Arrived
Operator:
Southwest Airlines
More flights by this operator :: More flights under this callsign
Pilot: Lamont A. (24221)
Aircraft: BOEING 737-800
(B738)
More flights by this aircraft type
Origin: KGEG Spokane Intl
United States
Destination: KRNO Reno/Tahoe Intl
United States
More flights between these airports :: More routes between these airports
Route: +GEG6 PDT IMB J3 LKV HARTT EELZA2
File this flight plan on PilotEdge
Remarks: im new
Altitude:
(Current/Filed)
35,000ft
Speed:
(Current/Filed)
400kts
Departed: 22-May-20 07:20 PM
Arrived: 22-May-20 08:54 PM
Distance/Time
Traveled:
496nm/1:34
Distance/Time
To Go:
Arrived

Flight Plot

Page will automatically refresh every two minutes.


Map Options




Map Legend


Flown Route
Filed Route
Departure Airport
Arrival Airport
Navaid (VOR, NDB)
Fix

Horizontal Profiles

Position Reports

Time Latitude Longitude Heading Altitude Ground
Speed
22-May-20 18:25 47.623226 -117.538400 1 2368ft 0kts
22-May-20 18:26 47.623226 -117.538400 1 2368ft 0kts
22-May-20 18:27 47.623226 -117.538400 1 2368ft 0kts
22-May-20 18:28 47.623226 -117.538400 1 2368ft 0kts
22-May-20 18:29 47.623226 -117.538400 1 2368ft 0kts
22-May-20 18:30 47.623226 -117.538400 1 2368ft 0kts
22-May-20 18:31 47.623226 -117.538400 1 2368ft 0kts
22-May-20 18:32 47.623226 -117.538400 1 2368ft 0kts
22-May-20 18:33 47.623226 -117.538400 1 2368ft 0kts
22-May-20 18:34 47.623226 -117.538400 1 2368ft 0kts
22-May-20 18:35 47.623209 -117.538401 1 2367ft 0kts
22-May-20 18:36 47.623209 -117.538401 1 2367ft 0kts
22-May-20 18:37 47.623209 -117.538401 1 2367ft 0kts
22-May-20 18:38 47.623209 -117.538401 1 2367ft 0kts
22-May-20 18:39 47.623209 -117.538401 1 2367ft 0kts
22-May-20 18:40 47.623209 -117.538401 1 2367ft 0kts
22-May-20 18:41 47.623209 -117.538401 1 2367ft 0kts
22-May-20 18:42 47.623209 -117.538401 1 2367ft 0kts
22-May-20 18:43 47.623209 -117.538401 1 2367ft 0kts
22-May-20 18:44 47.623209 -117.538401 1 2367ft 0kts
22-May-20 18:45 47.623209 -117.538401 1 2367ft 0kts
22-May-20 18:46 47.623209 -117.538401 1 2367ft 0kts
22-May-20 18:47 47.623209 -117.538401 1 2367ft 0kts
22-May-20 18:48 47.623209 -117.538401 1 2367ft 0kts
22-May-20 18:49 47.623209 -117.538401 1 2367ft 0kts
22-May-20 18:50 47.623209 -117.538401 1 2367ft 0kts
22-May-20 18:51 47.623209 -117.538401 1 2367ft 0kts
22-May-20 18:52 47.623209 -117.538401 1 2367ft 0kts
22-May-20 18:53 47.623209 -117.538401 1 2367ft 0kts
22-May-20 18:54 47.623209 -117.538401 1 2367ft 0kts
22-May-20 18:55 47.623209 -117.538401 1 2367ft 0kts
22-May-20 18:56 47.623209 -117.538401 1 2367ft 0kts
22-May-20 18:57 47.623209 -117.538401 1 2368ft 0kts
22-May-20 18:58 47.622825 -117.538483 32 2367ft 2kts
22-May-20 18:59 47.622635 -117.539060 90 2367ft 0kts
22-May-20 19:00 47.622635 -117.539059 90 2367ft 0kts
22-May-20 19:01 47.622635 -117.539059 90 2367ft 0kts
22-May-20 19:02 47.622635 -117.539059 90 2367ft 0kts
22-May-20 19:03 47.622635 -117.539059 90 2367ft 0kts
22-May-20 19:04 47.622635 -117.539059 90 2367ft 0kts
22-May-20 19:05 47.622635 -117.539059 90 2367ft 0kts
22-May-20 19:06 47.622635 -117.539059 90 2367ft 0kts
22-May-20 19:07 47.622635 -117.539059 90 2367ft 0kts
22-May-20 19:08 47.622635 -117.539059 90 2367ft 0kts
22-May-20 19:09 47.622635 -117.539059 90 2367ft 0kts
22-May-20 19:10 47.622635 -117.539059 90 2367ft 0kts
22-May-20 19:11 47.622635 -117.539059 90 2367ft 0kts
22-May-20 19:12 47.623043 -117.534620 45 2363ft 24kts
22-May-20 19:13 47.626927 -117.528778 45 2354ft 20kts
22-May-20 19:14 47.631345 -117.522137 43 2342ft 26kts
22-May-20 19:15 47.632272 -117.520736 68 2333ft 0kts
22-May-20 19:16 47.632272 -117.520736 68 2333ft 0kts
22-May-20 19:18 47.631737 -117.519179 133 2331ft 13kts
22-May-20 19:19 47.630294 -117.519610 225 2338ft 20kts
22-May-20 19:20 47.610828 -117.549661 226 2911ft 185kts
22-May-20 19:21 47.560409 -117.587362 203 5642ft 239kts
22-May-20 19:22 47.505874 -117.644161 224 9219ft 254kts
22-May-20 19:23 47.446246 -117.720137 224 11694ft 326kts
22-May-20 19:24 47.374105 -117.812279 224 13002ft 348kts
22-May-20 19:25 47.290614 -117.884848 205 15291ft 365kts
22-May-20 19:26 47.195788 -117.947290 207 18797ft 384kts
22-May-20 19:27 47.096319 -118.014025 207 21828ft 404kts
22-May-20 19:28 46.991485 -118.084185 208 24121ft 422kts
22-May-20 19:29 46.883535 -118.156318 208 26677ft 433kts
22-May-20 19:30 46.771666 -118.230900 208 28663ft 451kts
22-May-20 19:31 46.655871 -118.307920 207 30696ft 460kts
22-May-20 19:32 46.539336 -118.385264 207 32843ft 462kts
22-May-20 19:33 46.422230 -118.462838 207 34922ft 462kts
22-May-20 19:34 46.305443 -118.540039 207 35056ft 458kts
22-May-20 19:35 46.189661 -118.616397 207 35058ft 458kts
22-May-20 19:35 46.095341 -118.678543 206 35051ft 458kts
22-May-20 19:37 45.959980 -118.767492 206 35052ft 458kts
22-May-20 19:37 45.864126 -118.830323 207 35048ft 457kts
22-May-20 19:38 45.749238 -118.905515 207 35052ft 452kts
22-May-20 19:39 45.636925 -118.984384 211 35053ft 447kts
22-May-20 19:40 45.527416 -119.066897 211 35053ft 443kts
22-May-20 19:41 45.418034 -119.148435 211 35051ft 444kts
22-May-20 19:42 45.308674 -119.229599 211 35049ft 444kts
22-May-20 19:43 45.199433 -119.310320 211 35047ft 444kts
22-May-20 19:44 45.090012 -119.390796 211 35054ft 445kts
22-May-20 19:45 44.979178 -119.472030 211 35100ft 455kts
22-May-20 19:46 44.866476 -119.554223 211 35104ft 457kts
22-May-20 19:47 44.753985 -119.635902 211 35105ft 458kts
22-May-20 19:48 44.640218 -119.714310 201 35112ft 459kts
22-May-20 19:49 44.516392 -119.762131 197 35108ft 462kts
22-May-20 19:50 44.392264 -119.809383 197 35111ft 461kts
22-May-20 19:51 44.268434 -119.856311 197 35110ft 462kts
22-May-20 19:52 44.144690 -119.902931 197 35115ft 462kts
22-May-20 19:53 44.020580 -119.949657 197 35115ft 462kts
22-May-20 19:54 43.896681 -119.995987 197 35099ft 461kts
22-May-20 19:55 43.772855 -120.042133 197 35085ft 461kts
22-May-20 19:56 43.649283 -120.087954 197 35093ft 463kts
22-May-20 19:57 43.525160 -120.133785 197 35101ft 463kts
22-May-20 19:58 43.401327 -120.179350 197 35110ft 462kts
22-May-20 19:59 43.277167 -120.224810 198 35106ft 463kts
22-May-20 20:00 43.153161 -120.270035 197 35094ft 461kts
22-May-20 20:01 43.029288 -120.314998 197 35096ft 463kts
22-May-20 20:02 42.905000 -120.359961 199 35096ft 463kts
22-May-20 20:03 42.781000 -120.404601 199 35086ft 463kts
22-May-20 20:04 42.656329 -120.449307 198 35085ft 465kts
22-May-20 20:05 42.531564 -120.493186 194 35085ft 465kts
22-May-20 20:06 42.403930 -120.480348 170 35083ft 450kts
22-May-20 20:07 42.281552 -120.443660 170 35091ft 456kts
22-May-20 20:08 42.158244 -120.406799 170 35091ft 453kts
22-May-20 20:09 42.035390 -120.370297 170 35092ft 454kts
22-May-20 20:10 41.911957 -120.333717 169 35092ft 455kts
22-May-20 20:11 41.788726 -120.297380 170 35083ft 455kts
22-May-20 20:12 41.665679 -120.261214 170 35079ft 453kts
22-May-20 20:13 41.542438 -120.225128 170 35078ft 456kts
22-May-20 20:14 41.419354 -120.189232 170 35078ft 454kts
22-May-20 20:15 41.295917 -120.153366 170 35081ft 456kts
22-May-20 20:16 41.172355 -120.117634 170 35084ft 454kts
22-May-20 20:17 41.048762 -120.082008 171 35087ft 466kts
22-May-20 20:18 40.919275 -120.044778 173 35089ft 486kts
22-May-20 20:19 40.787614 -120.005856 169 32656ft 507kts
22-May-20 20:20 40.653842 -119.962360 168 28530ft 482kts
22-May-20 20:21 40.530478 -119.922696 168 26371ft 424kts
22-May-20 20:22 40.419347 -119.887125 167 24659ft 422kts
22-May-20 20:23 40.311801 -119.852829 166 22990ft 400kts
22-May-20 20:24 40.206315 -119.819235 166 21311ft 394kts
22-May-20 20:25 40.102792 -119.786373 166 19623ft 375kts
22-May-20 20:26 40.007484 -119.743105 150 17962ft 368kts
22-May-20 20:27 39.918513 -119.686393 165 16353ft 359kts
22-May-20 20:28 39.822344 -119.676171 178 14758ft 345kts
22-May-20 20:29 39.731851 -119.673341 178 13260ft 320kts
22-May-20 20:30 39.644744 -119.667629 174 11836ft 316kts
22-May-20 20:31 39.564235 -119.659391 174 11232ft 264kts
22-May-20 20:32 39.497633 -119.656300 180 10975ft 215kts
22-May-20 20:33 39.438317 -119.655584 177 10997ft 221kts
22-May-20 20:34 39.372497 -119.653309 177 10983ft 238kts
22-May-20 20:35 39.305966 -119.650897 177 10984ft 239kts
22-May-20 20:36 39.240373 -119.648413 177 10988ft 228kts
22-May-20 20:37 39.179260 -119.646025 177 10985ft 219kts
22-May-20 20:38 39.118311 -119.643678 177 10985ft 219kts
22-May-20 20:39 39.057499 -119.641465 177 10985ft 219kts
22-May-20 20:40 38.996545 -119.639588 178 10978ft 214kts
22-May-20 20:41 38.985159 -119.692211 321 11000ft 205kts
22-May-20 20:42 39.025958 -119.739057 312 10987ft 198kts
22-May-20 20:43 39.067683 -119.776428 1 10998ft 194kts
22-May-20 20:44 39.121096 -119.773939 1 10988ft 191kts
22-May-20 20:45 39.174488 -119.772832 0 10986ft 191kts
22-May-20 20:46 39.227874 -119.772178 0 10429ft 191kts
22-May-20 20:47 39.280410 -119.771633 0 9236ft 188kts
22-May-20 20:48 39.332158 -119.771091 0 8013ft 186kts
22-May-20 20:49 39.382561 -119.770513 0 6816ft 173kts
22-May-20 20:50 39.430217 -119.769925 0 5717ft 171kts
22-May-20 20:51 39.472646 -119.769391 0 4737ft 139kts
22-May-20 20:52 39.505339 -119.769232 0 4426ft 58kts
22-May-20 20:53 39.511106 -119.770382 281 4426ft 0kts
22-May-20 20:54 39.508483 -119.771466 190 4426ft 14kts
22-May-20 20:55 39.507507 -119.773451 199 4426ft 0kts
22-May-20 20:56 39.507507 -119.773451 199 4426ft 0kts
22-May-20 20:57 39.507507 -119.773451 199 4426ft 0kts
22-May-20 20:58 39.507507 -119.773451 199 4426ft 0kts
22-May-20 20:59 39.507507 -119.773451 199 4426ft 0kts
22-May-20 21:00 39.507507 -119.773451 199 4426ft 0kts

Navigation Log

Ident Type
Flight plan parsing failed, navigation log unavailable